Data for 06/22/2013

Time Sea-Level Adjusted Pressure Absolute Pressure Temperature Relative Humidity Dew Point   
(mb) (inHg) (mb) (inHg) (C) (F) (%) (C) (F)
00:05 1019 30.09 848 25.04 8.4 47.1 77 4.6 40.2
00:10 1019 30.09 848 25.04 8.5 47.3 76 4.4 40
00:15 1019 30.09 848 25.04 8.5 47.3 75 4.3 39.8
00:20 1019 30.09 848 25.04 8.5 47.2 74 4.1 39.4
00:25 1019 30.09 848 25.04 8.4 47.1 74 3.9 39.1
00:30 1019 30.09 848 25.04 8.3 47 75 4.1 39.4
00:35 1019 30.09 848 25.04 8.2 46.7 76 4.2 39.6
00:40 1019 30.09 848 25.04 7.9 46.1 77 4.1 39.3
00:45 1019 30.09 848 25.04 7.7 45.8 78 4.1 39.3
00:50 1019 30.09 848 25.04 7.5 45.6 79 4.1 39.3
00:55 1019 30.09 848 25.04 7.5 45.6 78 4 39.2
01:00 1019 30.09 848 25.04 8 46.4 76 4 39.3
01:05 1019 30.09 848 25.04 8.4 47.2 74 4.1 39.3
01:10 1019 30.09 848 25.04 8.6 47.4 73 4.1 39.3
01:15 1019 30.09 848 25.04 8.5 47.3 74 4.2 39.6
01:20 1019 30.09 848 25.04 8.5 47.3 75 4.3 39.7
01:25 1019 30.09 848 25.04 8.4 47.1 77 4.6 40.2
01:30 1019 30.09 848 25.04 8.1 46.5 77 4.2 39.6
01:35 1019 30.09 848 25.04 8.1 46.5 76 4.1 39.4
01:40 1019 30.09 848 25.04 8.2 46.8 76 4.3 39.7
01:45 1019 30.09 848 25.04 8.1 46.5 78 4.4 39.9
01:50 1019 30.09 848 25.04 8.1 46.5 78 4.4 39.9
01:55 1019 30.09 848 25.04 7.9 46.2 78 4.4 39.9
02:00 1019 30.09 848 25.04 7.7 45.9 79 4.3 39.7
02:05 1019 30.09 848 25.04 7.7 45.9 79 4.3 39.7
02:10 1019 30.09 848 25.04 7.7 45.9 79 4.3 39.8
02:15 1019 30.09 848 25.04 7.7 45.8 79 4.2 39.6
02:20 1019 30.09 848 25.04 7.6 45.6 80 4.3 39.8
02:25 1019 30.09 848 25.04 7.3 45.1 80 4.1 39.4
02:30 1018 30.06 848 25.04 7.2 45 80 4.1 39.3
02:35 1018 30.06 848 25.04 7.3 45.1 80 4.1 39.4
02:40 1018 30.06 848 25.04 7.6 45.6 79 4.2 39.5
02:45 1018 30.06 848 25.04 7.7 45.9 78 4.2 39.6
02:50 1018 30.06 848 25.04 7.8 46.1 78 4.2 39.5
02:55 1018 30.06 848 25.04 7.8 46 78 4.1 39.4
03:00 1018 30.06 848 25.04 7.8 46 78 4.1 39.4
03:05 1018 30.06 848 25.04 7.9 46.1 77 4.1 39.4
03:10 1018 30.06 848 25.04 7.8 46.1 77 4 39.2
03:15 1018 30.06 848 25.04 7.9 46.2 77 4.1 39.3
03:20 1018 30.06 848 25.04 7.9 46.1 77 4.1 39.4
03:25 1018 30.06 848 25.04 7.8 46 78 4.1 39.4
03:30 1018 30.06 847 25.01 7.6 45.6 79 4.1 39.4
03:35 1018 30.06 847 25.01 7.2 45 80 4 39.3
03:40 1018 30.06 847 25.01 7.1 44.7 81 4 39.1
03:45 1018 30.06 847 25.01 7.1 44.7 80 3.9 39
03:50 1018 30.06 847 25.01 7.2 44.9 81 4.1 39.5
03:55 1018 30.06 847 25.01 7.3 45.2 81 4.2 39.6
04:00 1018 30.06 847 25.01 7.3 45.1 81 4.3 39.7
04:05 1018 30.06 847 25.01 7.1 44.7 83 4.4 39.9
04:10 1018 30.06 847 25.01 6.8 44.3 84 4.3 39.8
04:15 1018 30.06 847 25.01 6.8 44.2 84 4.3 39.7
04:20 1018 30.06 847 25.01 6.8 44.2 84 4.3 39.7
04:25 1018 30.06 847 25.01 6.9 44.3 85 4.5 40.1
04:30 1018 30.06 847 25.01 6.9 44.4 84 4.3 39.8
04:35 1018 30.06 847 25.01 6.8 44.3 84 4.2 39.6
04:40 1018 30.06 847 25.01 6.7 44.1 83 4 39.2
04:45 1018 30.06 847 25.01 6.6 43.8 82 3.8 38.9
04:50 1018 30.06 847 25.01 6.6 43.9 81 3.6 38.5
04:55 1018 30.06 847 25.01 6.6 43.8 82 3.7 38.6
05:00 1018 30.06 847 25.01 6.7 44.1 82 3.9 39.1
05:05 1018 30.06 847 25.01 7 44.5 80 3.7 38.7
05:10 1018 30.06 847 25.01 7.4 45.2 79 3.9 39
05:15 1018 30.06 847 25.01 7.4 45.2 78 3.8 38.8
05:20 1018 30.06 847 25.01 7.6 45.7 78 4 39.2
05:25 1018 30.06 847 25.01 7.3 45.1 79 3.9 39.1
05:30 1018 30.06 847 25.01 7.2 45 78 3.7 38.6
05:35 1018 30.06 847 25.01 7.4 45.4 77 3.7 38.7
05:40 1018 30.06 847 25.01 7.6 45.7 76 3.7 38.7
05:45 1018 30.06 847 25.01 7.7 45.8 76 3.7 38.6
05:50 1018 30.06 847 25.01 7.8 46 77 3.9 39.1
05:55 1018 30.06 848 25.04 8.2 46.7 76 4.2 39.6
06:00 1018 30.06 848 25.04 8.3 46.9 75 4.2 39.6
06:05 1018 30.06 848 25.04 8.3 46.9 75 4.1 39.4
06:10 1018 30.06 848 25.04 8.1 46.5 75 4 39.2
06:15 1018 30.06 847 25.01 8.2 46.8 75 4.1 39.3
06:20 1018 30.06 847 25.01 8.4 47.1 76 4.3 39.8
06:25 1018 30.06 847 25.01 8.3 47 76 4.4 39.9
06:30 1018 30.06 848 25.04 8.3 47 78 4.7 40.4
06:35 1018 30.06 847 25.01 8.5 47.2 76 4.5 40.1
06:40 1018 30.06 848 25.04 8.5 47.3 76 4.5 40.1
06:45 1018 30.06 848 25.04 8.6 47.4 76 4.6 40.4
06:50 1018 30.06 848 25.04 8.8 47.8 78 5.1 41.2
06:55 1018 30.06 848 25.04 8.8 47.8 77 5 41.1
07:00 1018 30.06 848 25.04 8.6 47.6 76 4.7 40.4
07:05 1019 30.09 848 25.04 9.1 48.4 76 5.1 41.1
07:10 1018 30.06 848 25.04 9.6 49.3 73 5.1 41.1
07:15 1018 30.06 848 25.04 10 49.9 70 4.9 40.8
07:20 1019 30.09 848 25.04 10.7 51.3 71 5.7 42.3
07:25 1019 30.09 848 25.04 10.6 51 70 5.3 41.5
07:30 1019 30.09 848 25.04 10.9 51.6 68 5.3 41.5
07:35 1019 30.09 848 25.04 11.3 52.3 68 5.7 42.3
07:40 1019 30.09 848 25.04 11 51.9 69 5.6 42.1
07:45 1019 30.09 848 25.04 10.7 51.3 70 5.4 41.8
07:50 1019 30.09 848 25.04 10.5 50.9 70 5.4 41.6
07:55 1019 30.09 848 25.04 10.7 51.3 68 5 41
08:00 1019 30.09 848 25.04 11 51.8 69 5.6 42.1
08:05 1019 30.09 848 25.04 11.2 52.1 68 5.5 41.9
08:10 1019 30.09 848 25.04 10.7 51.3 71 5.7 42.2
08:15 1019 30.09 848 25.04 10.6 51.1 69 5.2 41.4
08:20 1019 30.09 848 25.04 11 51.7 68 5.3 41.5
08:25 1019 30.09 848 25.04 10.8 51.5 69 5.4 41.6
08:30 1019 30.09 848 25.04 10.9 51.6 69 5.5 41.9
08:35 1019 30.09 848 25.04 10.9 51.6 70 5.7 42.3
08:40 1019 30.09 848 25.04 10.5 50.8 73 5.8 42.5
08:45 1019 30.09 849 25.07 10.2 50.4 73 5.6 42
08:50 1020 30.12 849 25.07 10.2 50.3 75 5.9 42.6
08:55 1020 30.12 849 25.07 9.9 49.9 75 5.7 42.3
09:00 1020 30.12 849 25.07 9.8 49.7 78 6.2 43.1
09:05 1020 30.12 849 25.07 9.8 49.6 74 5.3 41.6
09:10 1020 30.12 849 25.07 9.7 49.4 68 4 39.3
09:15 1020 30.12 849 25.07 9.3 48.7 73 4.6 40.4
09:20 1020 30.12 849 25.07 9 48.1 74 4.6 40.3
09:25 1020 30.12 849 25.07 8.9 47.9 74 4.6 40.2
09:30 1019 30.09 849 25.07 8.9 48 74 4.6 40.3
09:35 1019 30.09 849 25.07 9.2 48.5 72 4.4 40
09:40 1019 30.09 849 25.07 9.6 49.2 73 5 41
09:45 1019 30.09 849 25.07 9.4 49 72 4.7 40.5
09:50 1019 30.09 848 25.04 9.5 49.2 71 4.6 40.2
09:55 1019 30.09 848 25.04 9.8 49.7 69 4.5 40
10:00 1019 30.09 848 25.04 10.3 50.6 61 3.2 37.7
10:05 1019 30.09 848 25.04 10.4 50.8 58 2.7 36.8
10:10 1019 30.09 848 25.04 11 51.8 55 2.4 36.4
10:15 1019 30.09 848 25.04 11.2 52.1 57 2.9 37.2
10:20 1019 30.09 848 25.04 11.4 52.4 60 3.9 39
10:25 1019 30.09 848 25.04 11.6 52.9 61 4.3 39.7
10:30 1019 30.09 848 25.04 11.7 53 58 3.6 38.5
10:35 1019 30.09 848 25.04 11.9 53.4 54 2.9 37.3
10:40 1019 30.09 848 25.04 12 53.6 56 3.7 38.6
10:45 1019 30.09 848 25.04 12.4 54.4 52 2.8 37.1
10:50 1018 30.06 848 25.04 12.9 55.2 50 2.7 36.8
10:55 1018 30.06 848 25.04 13.5 56.3 47 2.6 36.8
11:00 1018 30.06 848 25.04 13.5 56.3 49 3 37.4
11:05 1018 30.06 847 25.01 13.8 56.9 47 2.8 37
11:10 1018 30.06 847 25.01 13.9 57.1 46 2.4 36.4
11:15 1018 30.06 847 25.01 13.8 56.9 47 2.7 36.8
11:20 1018 30.06 847 25.01 13.7 56.7 48 3 37.4
11:25 1018 30.06 847 25.01 14.1 57.3 44 2 35.6
11:30 1018 30.06 847 25.01 14.7 58.4 42 1.9 35.5
11:35 1018 30.06 847 25.01 16.2 61.1 37 1.6 34.9
11:40 1018 30.06 847 25.01 16.7 62.1 36 1.6 34.8
11:45 1018 30.06 847 25.01 16.7 62 37 1.9 35.4
11:50 1018 30.06 847 25.01 16 60.8 40 2.5 36.5
11:55 1018 30.06 847 25.01 16.7 62.1 36 1.5 34.8
12:00 1018 30.06 847 25.01 16.6 61.8 37 1.8 35.2
12:05 1018 30.06 847 25.01 16.8 62.3 36 1.8 35.2
12:10 1018 30.06 847 25.01 16.7 62.1 36 1.6 34.9
12:15 1018 30.06 847 25.01 17.3 63.1 38 2.9 37.3
12:20 1018 30.06 847 25.01 17.5 63.4 37 2.8 37.1
12:25 1018 30.06 847 25.01 16.9 62.5 39 3.1 37.6
12:30 1018 30.06 847 25.01 16.8 62.3 39 2.8 37
12:35 1017 30.03 847 25.01 16.9 62.3 37 2.2 35.9
12:40 1017 30.03 847 25.01 16.8 62.3 36 1.7 35.1
12:45 1017 30.03 847 25.01 17.3 63.2 37 2.6 36.6
12:50 1017 30.03 847 25.01 17.3 63.1 36 2.1 35.7
12:55 1017 30.03 847 25.01 17.3 63.2 33 1 33.8
13:00 1018 30.06 847 25.01 17 62.5 35 1.5 34.7
13:05 1018 30.06 847 25.01 15.1 59.2 48 4.2 39.5
13:10 1019 30.09 848 25.04 12.3 54.1 57 4 39.3
13:15 1019 30.09 848 25.04 11 51.8 64 4.4 39.9
13:20 1019 30.09 848 25.04 9.7 49.4 68 4.2 39.5
13:25 1019 30.09 848 25.04 8.4 47.2 73 3.9 39
13:30 1019 30.09 849 25.07 7.1 44.8 81 4.1 39.3
13:35 1019 30.09 849 25.07 6.6 43.8 82 3.7 38.7
13:40 1020 30.12 849 25.07 6.7 44.1 83 4 39.2
13:45 1020 30.12 849 25.07 6.8 44.3 84 4.4 39.9
13:50 1020 30.12 849 25.07 7 44.7 87 5 41
13:55 1020 30.12 849 25.07 7.2 45 86 5.1 41.1
14:00 1020 30.12 849 25.07 7.4 45.2 86 5.1 41.3
14:05 1020 30.12 849 25.07 7.3 45.2 84 4.8 40.7
14:10 1020 30.12 849 25.07 7.2 44.9 85 4.8 40.6
14:15 1020 30.12 849 25.07 7.2 45 85 4.9 40.8
14:20 1020 30.12 849 25.07 7.4 45.3 87 5.3 41.6
14:25 1020 30.12 849 25.07 7.5 45.5 86 5.4 41.7
14:30 1020 30.12 849 25.07 7.6 45.6 88 5.6 42.1
14:35 1020 30.12 849 25.07 7.6 45.8 88 5.7 42.3
14:40 1020 30.12 849 25.07 7.7 45.9 89 6 42.8
14:45 1020 30.12 849 25.07 7.6 45.7 89 6 42.7
14:50 1020 30.12 849 25.07 7.5 45.6 90 6 42.8
14:55 1019 30.09 849 25.07 7.5 45.5 90 5.9 42.7
15:00 1019 30.09 849 25.07 7.5 45.4 90 5.9 42.6
15:05 1019 30.09 848 25.04 7.6 45.7 91 6.2 43.2
15:10 1019 30.09 848 25.04 8 46.4 89 6.3 43.3
15:15 1019 30.09 848 25.04 8.5 47.2 90 6.9 44.4
15:20 1019 30.09 848 25.04 9.1 48.3 89 7.3 45.2
15:25 1019 30.09 848 25.04 9.8 49.6 83 7 44.7
15:30 1019 30.09 848 25.04 10 50 76 6 42.9
15:35 1019 30.09 848 25.04 9.9 49.8 82 6.9 44.5
15:40 1019 30.09 848 25.04 10.6 51.1 70 5.5 41.8
15:45 1019 30.09 848 25.04 10.7 51.3 69 5.3 41.6
15:50 1019 30.09 848 25.04 11.4 52.4 72 6.6 43.8
15:55 1019 30.09 848 25.04 11.7 53 71 6.5 43.8
16:00 1018 30.06 848 25.04 11.4 52.4 70 6.1 43
16:05 1018 30.06 848 25.04 11.5 52.8 69 6 42.8
16:10 1018 30.06 848 25.04 12 53.5 63 5.3 41.5
16:15 1018 30.06 848 25.04 12.1 53.7 63 5.3 41.6
16:20 1018 30.06 848 25.04 12.3 54.1 58 4.2 39.6
16:25 1019 30.09 848 25.04 13.2 55.8 56 4.6 40.3
16:30 1018 30.06 848 25.04 13.2 55.8 57 5 41.1
16:35 1018 30.06 848 25.04 13.3 55.9 53 3.8 38.9
16:40 1019 30.09 848 25.04 13.9 57 49 3.5 38.3
16:45 1019 30.09 848 25.04 14.8 58.6 48 4 39.2
16:50 1018 30.06 848 25.04 15.1 59.2 47 4.1 39.4
16:55 1018 30.06 848 25.04 15.5 60 47 4.3 39.8
17:00 1018 30.06 848 25.04 15.6 60 45 3.6 38.6
17:05 1018 30.06 848 25.04 15.4 59.8 48 4.6 40.2
17:10 1018 30.06 847 25.01 15.1 59.2 48 4.2 39.6
17:15 1018 30.06 847 25.01 15.1 59.2 48 4.4 39.9
17:20 1018 30.06 847 25.01 15 59 51 4.9 40.9
17:25 1018 30.06 847 25.01 14.6 58.4 47 3.6 38.5
17:30 1018 30.06 847 25.01 14.3 57.8 48 3.6 38.4
17:35 1018 30.06 847 25.01 14.7 58.4 50 4.3 39.8
17:40 1018 30.06 848 25.04 15.4 59.7 48 4.4 39.9
17:45 1018 30.06 848 25.04 15.4 59.7 46 4 39.2
17:50 1018 30.06 848 25.04 14.7 58.4 51 4.7 40.5
17:55 1018 30.06 848 25.04 13.6 56.6 52 4 39.3
18:00 1018 30.06 848 25.04 13.4 56.1 52 3.8 38.8
18:05 1018 30.06 848 25.04 13.2 55.7 54 4.2 39.6
18:10 1018 30.06 848 25.04 12.8 55.1 55 4.1 39.4
18:15 1018 30.06 848 25.04 12.7 54.9 55 3.9 39.1
18:20 1019 30.09 848 25.04 12.5 54.5 56 4 39.2
18:25 1019 30.09 848 25.04 12.3 54.2 55 3.5 38.4
18:30 1019 30.09 848 25.04 12.2 54 57 4 39.2
18:35 1019 30.09 848 25.04 12.3 54.1 55 3.6 38.6
18:40 1019 30.09 848 25.04 12.2 54 56 3.8 38.8
18:45 1019 30.09 848 25.04 12.2 54 57 4.1 39.4
18:50 1019 30.09 848 25.04 12.1 53.9 56 3.8 38.8
18:55 1019 30.09 848 25.04 12 53.7 56 3.6 38.5
19:00 1019 30.09 848 25.04 12.2 53.9 56 3.6 38.5
19:05 1019 30.09 849 25.07 12.3 54.1 61 5.1 41.1
19:10 1019 30.09 849 25.07 11.2 52.2 70 6 42.8
19:15 1019 30.09 849 25.07 10.1 50.2 78 6.4 43.6
19:20 1019 30.09 848 25.04 9.1 48.4 81 6.1 43
19:25 1019 30.09 848 25.04 8.9 48 82 6 42.7
19:30 1019 30.09 848 25.04 8.7 47.7 83 6.1 42.9
19:35 1019 30.09 848 25.04 8.7 47.6 83 5.9 42.7
19:40 1019 30.09 848 25.04 8.8 47.9 84 6.3 43.4
19:45 1019 30.09 848 25.04 8.9 48 82 6.1 42.9
19:50 1019 30.09 848 25.04 9.1 48.3 83 6.3 43.3
19:55 1019 30.09 848 25.04 9.3 48.7 81 6.1 43
20:00 1019 30.09 849 25.07 9.5 49 80 6.2 43.2
20:05 1019 30.09 849 25.07 9.5 49 78 5.9 42.7
20:10 1019 30.09 849 25.07 9.5 49.2 79 6.2 43.1
20:15 1019 30.09 849 25.07 9.6 49.2 79 6.2 43.2
20:20 1020 30.12 849 25.07 9.5 49.1 78 5.8 42.4
20:25 1019 30.09 849 25.07 9.6 49.3 74 5.2 41.3
20:30 1019 30.09 849 25.07 9.8 49.7 72 5.1 41.1
20:35 1019 30.09 849 25.07 9.9 49.8 72 5.1 41.2
20:40 1019 30.09 849 25.07 9.7 49.5 75 5.5 41.9
20:45 1019 30.09 849 25.07 9.5 49.1 75 5.4 41.7
20:50 1019 30.09 849 25.07 9.3 48.8 76 5.3 41.5
20:55 1019 30.09 849 25.07 9.2 48.6 76 5.2 41.3
21:00 1019 30.09 849 25.07 9 48.2 80 5.8 42.4
21:05 1019 30.09 849 25.07 8.8 47.8 79 5.4 41.7
21:10 1019 30.09 849 25.07 8.8 47.8 79 5.4 41.7
21:15 1019 30.09 849 25.07 8.7 47.7 80 5.5 41.9
21:20 1020 30.12 849 25.07 8.5 47.3 82 5.6 42
21:25 1020 30.12 849 25.07 8.4 47.2 81 5.4 41.7
21:30 1019 30.09 849 25.07 8.5 47.3 80 5.3 41.6
21:35 1020 30.12 849 25.07 8.5 47.2 81 5.4 41.7
21:40 1020 30.12 849 25.07 8.3 46.9 81 5.2 41.4
21:45 1019 30.09 849 25.07 8.4 47.2 79 5 41
21:50 1019 30.09 849 25.07 8.4 47.1 79 4.9 40.9
21:55 1019 30.09 849 25.07 8.4 47.1 79 5.1 41.1
22:00 1019 30.09 849 25.07 8.3 47 79 4.9 40.9
22:05 1019 30.09 848 25.04 8.2 46.7 81 5.1 41.1
22:10 1019 30.09 848 25.04 8.1 46.5 81 4.9 40.9
22:15 1019 30.09 848 25.04 8 46.5 80 4.9 40.8
22:20 1019 30.09 848 25.04 8 46.4 81 4.9 40.8
22:25 1019 30.09 848 25.04 8 46.4 81 4.9 40.7
22:30 1019 30.09 848 25.04 8 46.3 81 4.9 40.9
22:35 1019 30.09 848 25.04 7.9 46.3 81 4.9 40.9
22:40 1019 30.09 848 25.04 7.8 46.1 82 5 41
22:45 1019 30.09 849 25.07 7.8 46 83 5.1 41.2
22:50 1019 30.09 849 25.07 7.6 45.7 84 5.1 41.2
22:55 1019 30.09 848 25.04 7.7 45.9 85 5.4 41.7
23:00 1019 30.09 848 25.04 7.8 46 86 5.6 42.1
23:05 1019 30.09 848 25.04 7.7 45.9 86 5.6 42.1
23:10 1019 30.09 848 25.04 7.7 45.9 86 5.5 41.8
23:15 1019 30.09 848 25.04 7.5 45.5 87 5.5 41.8
23:20 1019 30.09 848 25.04 7.4 45.3 88 5.5 41.9
23:25 1019 30.09 848 25.04 7.3 45.1 88 5.4 41.7
23:30 1019 30.09 848 25.04 7 44.7 87 5 41
23:35 1019 30.09 848 25.04 7 44.5 86 4.9 40.8
23:40 1019 30.09 848 25.04 6.9 44.4 85 4.6 40.3
23:45 1018 30.06 848 25.04 6.8 44.2 85 4.5 40.1
23:50 1018 30.06 848 25.04 6.7 44 85 4.3 39.7
23:55 1018 30.06 848 25.04 6.6 43.9 85 4.3 39.7
24:00 1018 30.06 848 25.04 6.8 44.2 83 4.2 39.5